This is the latest recevied weather packets stored in our database for station/object ZS1DFR-1. If no packets are shown the sender has not sent any weather packets the latest 10 day(s).
| Time | Temp. | Humidity | Pressure | Rain* | Wind** | Luminosity | Snow |
|---|---|---|---|---|---|---|---|
| 1778271819 | 13.89° C | 90% | 1014.1 hPa | 0 mm | - | - | - |
| 1778270922 | 13.89° C | 90% | 1014.1 hPa | 0 mm | - | - | - |
| 1778270919 | 13.89° C | 90% | 1014.1 hPa | 0 mm | - | - | - |
| 1778270019 | 14.44° C | 89% | 1014.3 hPa | 0 mm | - | - | - |
| 1778269121 | 14.44° C | 89% | 1014.3 hPa | 0 mm | - | - | - |
| 1778268219 | 14.44° C | 88% | 1014.4 hPa | 0 mm | - | - | - |
| 1778267319 | 14.44° C | 88% | 1014.4 hPa | 0 mm | - | - | - |
| 1778266419 | 15.56° C | 87% | 1014.5 hPa | 0 mm | - | - | - |
| 1778265519 | 15.56° C | 87% | 1014.5 hPa | 0 mm | - | - | - |
| 1778264619 | 15.56° C | 85% | 1014.7 hPa | 0 mm | - | - | - |
| 1778263722 | 15.56° C | 85% | 1014.7 hPa | 0 mm | - | - | - |
| 1778263719 | 15.56° C | 85% | 1014.7 hPa | 0 mm | - | - | - |
| 1778262819 | 16.11° C | 84% | 1014.7 hPa | 0 mm | - | - | - |
| 1778261919 | 16.11° C | 84% | 1014.7 hPa | 0 mm | - | - | - |
| 1778261019 | 16.67° C | 81% | 1014.8 hPa | 0 mm | - | - | - |
| 1778260119 | 16.67° C | 81% | 1014.8 hPa | 0 mm | - | - | - |
| 1778259219 | 17.22° C | 78% | 1014.7 hPa | 0 mm | - | - | - |
| 1778258319 | 17.22° C | 78% | 1014.7 hPa | 0 mm | - | - | - |
| 1778257420 | 17.78° C | 75% | 1014.7 hPa | 0 mm | - | - | - |
| 1778256519 | 17.78° C | 75% | 1014.7 hPa | 0 mm | - | - | - |
| 1778255619 | 18.89° C | 70% | 1014.6 hPa | 0 mm | - | - | - |
| 1778254721 | 18.89° C | 70% | 1014.6 hPa | 0 mm | - | - | - |
| 1778254719 | 18.89° C | 70% | 1014.6 hPa | 0 mm | - | - | - |
| 1778253819 | 20° C | 64% | 1014.4 hPa | 0 mm | - | - | - |
| 1778252921 | 20° C | 64% | 1014.4 hPa | 0 mm | - | - | - |
* Rain latest hour (hover to see other rain measurements)
** Current wind speed in m/s (hover to see current wind gust speed)